createdAt,value
2023-01-29T00:01:32.252Z,96
2023-01-29T00:04:01.946Z,93
2023-01-29T00:06:31.951Z,101
2023-01-29T00:09:02.045Z,105
2023-01-29T00:11:31.933Z,95
2023-01-29T00:14:01.806Z,97
2023-01-29T00:16:31.641Z,104
2023-01-29T00:19:01.825Z,101
2023-01-29T00:21:31.727Z,89
2023-01-29T00:24:01.522Z,98
2023-01-29T00:26:31.334Z,103
2023-01-29T00:29:01.157Z,96
2023-01-29T00:31:31.015Z,100
2023-01-29T00:34:00.953Z,90
2023-01-29T00:36:30.777Z,102
2023-01-29T00:39:00.531Z,104
2023-01-29T00:41:30.181Z,97
2023-01-29T00:44:00.003Z,93
2023-01-29T00:46:29.906Z,101
2023-01-29T00:49:00.856Z,94
2023-01-29T00:51:29.373Z,94
2023-01-29T00:53:59.266Z,100
2023-01-29T00:56:29.583Z,95
2023-01-29T00:58:59.371Z,104
2023-01-29T01:01:29.677Z,96
2023-01-29T01:03:59.486Z,92
2023-01-29T01:06:29.427Z,96
2023-01-29T01:08:59.060Z,98
2023-01-29T01:11:29.237Z,98
2023-01-29T01:13:58.871Z,97
2023-01-29T01:16:28.592Z,92
2023-01-29T01:18:58.866Z,102
2023-01-29T01:21:28.466Z,100
2023-01-29T01:23:58.323Z,95
2023-01-29T01:26:27.969Z,96
2023-01-29T01:28:57.870Z,99
2023-01-29T01:31:27.700Z,99
2023-01-29T01:33:57.069Z,96
2023-01-29T01:36:26.830Z,100
2023-01-29T01:38:56.668Z,99
2023-01-29T01:41:26.364Z,100
2023-01-29T01:43:56.198Z,92
2023-01-29T01:46:26.027Z,94
2023-01-29T01:48:55.968Z,96
2023-01-29T01:51:25.901Z,96
2023-01-29T01:53:55.616Z,98
2023-01-29T01:56:25.246Z,94
2023-01-29T01:58:55.173Z,93
2023-01-29T02:01:25.867Z,97
2023-01-29T02:03:55.112Z,90
2023-01-29T02:06:24.900Z,97
2023-01-29T02:08:54.935Z,96
2023-01-29T02:11:24.732Z,100
2023-01-29T02:13:54.593Z,96
2023-01-29T02:16:24.581Z,98
2023-01-29T02:18:54.362Z,88
2023-01-29T02:21:24.227Z,91
2023-01-29T02:23:54.351Z,105
2023-01-29T02:26:24.139Z,104
2023-01-29T02:28:53.950Z,100
2023-01-29T02:31:24.201Z,96
2023-01-29T02:33:53.958Z,86
2023-01-29T02:36:23.829Z,95
2023-01-29T02:38:53.824Z,101
2023-01-29T02:41:23.655Z,94
2023-01-29T02:43:53.450Z,92
2023-01-29T02:46:23.230Z,94
2023-01-29T02:48:53.142Z,94
2023-01-29T02:51:23.032Z,90
2023-01-29T02:53:53.021Z,92
2023-01-29T02:56:22.962Z,100
2023-01-29T02:58:52.956Z,95
2023-01-29T03:01:22.973Z,105
2023-01-29T03:03:52.812Z,95
2023-01-29T03:06:22.729Z,99
2023-01-29T03:08:52.572Z,87
2023-01-29T03:11:22.515Z,100
2023-01-29T03:13:52.427Z,102
2023-01-29T03:16:22.383Z,104
2023-01-29T03:18:52.354Z,92
2023-01-29T03:21:22.308Z,95
2023-01-29T03:23:52.063Z,99
2023-01-29T03:26:21.936Z,92
2023-01-29T03:28:51.815Z,92
2023-01-29T03:31:21.880Z,101
2023-01-29T03:33:51.707Z,97
2023-01-29T03:36:21.582Z,97
2023-01-29T03:38:51.191Z,98
2023-01-29T03:41:21.234Z,99
2023-01-29T03:43:51.155Z,95
2023-01-29T03:46:21.047Z,96
2023-01-29T03:48:50.885Z,91
2023-01-29T03:51:20.934Z,95
2023-01-29T03:53:50.702Z,97
2023-01-29T03:56:20.513Z,95
2023-01-29T03:58:50.573Z,93
2023-01-29T04:01:20.403Z,95
2023-01-29T04:03:50.287Z,100
2023-01-29T04:06:20.017Z,90
2023-01-29T04:08:49.952Z,103
2023-01-29T04:11:19.934Z,93
2023-01-29T04:13:49.634Z,100
2023-01-29T04:16:19.368Z,100
2023-01-29T04:18:49.301Z,87
2023-01-29T04:21:19.261Z,90
2023-01-29T04:23:48.975Z,97
2023-01-29T04:26:18.799Z,93
2023-01-29T04:28:48.807Z,95
2023-01-29T04:31:18.760Z,96
2023-01-29T04:33:48.590Z,94
2023-01-29T04:36:18.574Z,92
2023-01-29T04:38:48.421Z,92
2023-01-29T04:41:18.524Z,100
2023-01-29T04:43:48.444Z,102
2023-01-29T04:46:18.247Z,94
2023-01-29T04:48:48.107Z,96
2023-01-29T04:51:18.005Z,97
2023-01-29T04:53:47.598Z,88
2023-01-29T04:56:17.246Z,99
2023-01-29T04:58:47.284Z,96
2023-01-29T05:01:17.186Z,94
2023-01-29T05:03:46.952Z,99
2023-01-29T05:06:16.670Z,91
2023-01-29T05:08:46.620Z,95
2023-01-29T05:11:16.560Z,99
2023-01-29T05:13:46.441Z,99
2023-01-29T05:16:16.394Z,94
2023-01-29T05:18:46.335Z,97
2023-01-29T05:21:16.347Z,96
2023-01-29T05:23:46.253Z,96
2023-01-29T05:26:16.104Z,99
2023-01-29T05:28:45.978Z,102
2023-01-29T05:31:15.894Z,100
2023-01-29T05:33:45.900Z,104
2023-01-29T05:36:15.898Z,100
2023-01-29T05:38:45.547Z,102
2023-01-29T05:41:15.516Z,107
2023-01-29T05:43:45.314Z,99
2023-01-29T05:46:15.215Z,100
2023-01-29T05:48:45.020Z,92
2023-01-29T05:51:14.760Z,102
2023-01-29T05:53:44.786Z,94
2023-01-29T05:56:14.636Z,100
2023-01-29T05:58:44.617Z,96
2023-01-29T06:01:14.580Z,99
2023-01-29T06:03:44.211Z,100
2023-01-29T06:06:14.241Z,91
2023-01-29T06:08:44.101Z,102
2023-01-29T06:11:13.875Z,91
2023-01-29T06:13:43.834Z,101
2023-01-29T06:16:13.734Z,100
2023-01-29T06:18:43.333Z,96
2023-01-29T06:21:13.274Z,102
2023-01-29T06:23:42.975Z,105
2023-01-29T06:26:12.700Z,105
2023-01-29T06:28:42.545Z,96
2023-01-29T06:31:27.336Z,103
2023-01-29T06:33:41.992Z,96
2023-01-29T06:36:11.905Z,97
2023-01-29T06:38:41.948Z,103
2023-01-29T06:41:11.786Z,89
2023-01-29T06:43:41.685Z,100
2023-01-29T06:46:11.383Z,106
2023-01-29T06:48:41.159Z,98
2023-01-29T06:51:10.948Z,90
2023-01-29T06:53:40.796Z,91
2023-01-29T06:56:10.703Z,98
2023-01-29T06:58:40.538Z,92
2023-01-29T07:01:10.723Z,95
2023-01-29T07:03:40.472Z,95
2023-01-29T07:06:10.456Z,100
2023-01-29T07:08:40.320Z,103
2023-01-29T07:11:10.169Z,92
2023-01-29T07:13:40.059Z,90
2023-01-29T07:16:09.816Z,105
2023-01-29T07:18:39.632Z,99
2023-01-29T07:21:09.604Z,98
2023-01-29T07:23:39.611Z,95
2023-01-29T07:26:09.589Z,100
2023-01-29T07:28:39.317Z,103
2023-01-29T07:31:09.257Z,102
2023-01-29T07:33:41.812Z,95
2023-01-29T07:36:11.780Z,104
2023-01-29T07:38:41.401Z,104
2023-01-29T07:41:11.273Z,101
2023-01-29T07:43:41.078Z,100
2023-01-29T07:46:10.859Z,101
2023-01-29T07:48:40.820Z,96
2023-01-29T07:51:10.779Z,107
2023-01-29T07:53:40.700Z,108
2023-01-29T07:56:10.460Z,100
2023-01-29T07:58:40.468Z,102
2023-01-29T08:01:10.576Z,108
2023-01-29T08:03:40.471Z,106
2023-01-29T08:06:10.494Z,104
2023-01-29T08:08:40.255Z,104
2023-01-29T08:11:09.739Z,106
2023-01-29T08:13:39.051Z,100
2023-01-29T08:16:09.118Z,100
2023-01-29T08:18:38.907Z,100
2023-01-29T08:21:09.309Z,98
2023-01-29T08:23:39.711Z,96
2023-01-29T08:26:10.100Z,106
2023-01-29T08:28:40.086Z,104
2023-01-29T08:31:10.623Z,111
2023-01-29T08:33:40.444Z,99
2023-01-29T08:36:10.162Z,106
2023-01-29T08:38:39.739Z,108
2023-01-29T08:41:10.214Z,122
2023-01-29T08:43:40.063Z,114
2023-01-29T08:46:10.030Z,108
2023-01-29T08:48:39.942Z,110
2023-01-29T08:51:09.808Z,108
2023-01-29T08:53:40.310Z,112
2023-01-29T08:56:09.986Z,105
2023-01-29T08:58:39.937Z,103
2023-01-29T09:01:09.791Z,99
2023-01-29T09:03:39.850Z,100
2023-01-29T09:06:09.840Z,106
2023-01-29T09:08:39.725Z,100
2023-01-29T09:11:09.263Z,102
2023-01-29T09:13:39.760Z,133
2023-01-29T09:16:09.309Z,108
2023-01-29T09:18:39.449Z,104
2023-01-29T09:21:09.283Z,102
2023-01-29T09:23:39.647Z,91
2023-01-29T09:26:09.665Z,95
2023-01-29T09:28:40.080Z,104
2023-01-29T09:31:10.009Z,100
2023-01-29T09:33:40.428Z,99
2023-01-29T09:36:10.247Z,100
2023-01-29T09:38:40.007Z,96
2023-01-29T09:41:09.625Z,94
2023-01-29T09:43:40.278Z,100
2023-01-29T09:46:09.801Z,103
2023-01-29T09:48:39.766Z,94
2023-01-29T09:51:11.658Z,115
2023-01-29T09:53:41.629Z,105
2023-01-29T09:56:11.474Z,123
2023-01-29T09:58:41.462Z,102
2023-01-29T10:01:11.514Z,96
2023-01-29T10:03:41.418Z,98
2023-01-29T10:06:10.990Z,93
2023-01-29T10:08:41.148Z,84
2023-01-29T10:11:11.872Z,95
2023-01-29T10:13:41.682Z,88
2023-01-29T10:16:11.376Z,96
2023-01-29T10:18:41.403Z,97
2023-01-29T10:21:11.288Z,88
2023-01-29T10:23:41.152Z,81
2023-01-29T10:26:11.625Z,101
2023-01-29T10:28:41.377Z,93
2023-01-29T10:31:11.466Z,95
2023-01-29T10:33:59.381Z,93
2023-01-29T10:36:11.851Z,86
2023-01-29T10:38:41.845Z,87
2023-01-29T10:41:12.542Z,96
2023-01-29T10:43:42.287Z,83
2023-01-29T10:46:12.976Z,83
2023-01-29T10:48:42.851Z,96
2023-01-29T10:54:08.697Z,88
2023-01-29T10:56:38.758Z,85
2023-01-29T10:59:09.393Z,84
2023-01-29T11:01:39.164Z,93
2023-01-29T11:04:09.353Z,94
2023-01-29T11:06:40.175Z,89
2023-01-29T11:09:10.373Z,84
2023-01-29T11:11:40.681Z,89
2023-01-29T11:14:11.005Z,94
2023-01-29T11:16:41.431Z,76
2023-01-29T11:19:11.588Z,89
2023-01-29T11:21:42.007Z,83
2023-01-29T11:24:12.403Z,83
2023-01-29T11:26:42.644Z,85
2023-01-29T11:29:12.730Z,82
2023-01-29T11:31:43.068Z,79
2023-01-29T11:34:12.982Z,97
2023-01-29T11:36:43.256Z,94
2023-01-29T11:39:13.491Z,81
2023-01-29T11:41:43.936Z,89
2023-01-29T11:44:14.033Z,83
2023-01-29T11:46:44.962Z,76
2023-01-29T11:49:20.818Z,74
2023-01-29T11:51:46.740Z,83
2023-01-29T11:54:16.972Z,87
2023-01-29T11:56:47.895Z,84
2023-01-29T11:59:18.855Z,81
2023-01-29T12:01:49.055Z,79
2023-01-29T12:04:20.604Z,83
2023-01-29T12:06:50.869Z,87
2023-01-29T12:09:21.226Z,90
2023-01-29T12:11:51.495Z,80
2023-01-29T12:14:22.367Z,87
2023-01-29T12:16:52.418Z,82
2023-01-29T12:19:22.702Z,88
2023-01-29T12:21:52.861Z,85
2023-01-29T12:24:23.496Z,197
2023-01-29T12:26:53.879Z,106
2023-01-29T12:29:24.733Z,104
2023-01-29T12:31:54.965Z,104
2023-01-29T12:34:24.841Z,88
2023-01-29T12:36:54.963Z,100
2023-01-29T12:39:25.809Z,94
2023-01-29T12:41:56.065Z,94
2023-01-29T12:44:26.312Z,84
2023-01-29T12:46:56.775Z,86
2023-01-29T12:49:27.694Z,85
2023-01-29T12:51:57.858Z,88
2023-01-29T12:54:28.195Z,92
2023-01-29T12:56:58.487Z,95
2023-01-29T12:59:29.330Z,95
2023-01-29T13:01:59.056Z,94
2023-01-29T13:04:29.990Z,81
2023-01-29T13:07:00.385Z,84
2023-01-29T13:09:30.758Z,83
2023-01-29T13:12:00.922Z,88
2023-01-29T13:14:31.264Z,82
2023-01-29T13:17:01.418Z,89
2023-01-29T13:19:31.890Z,85
2023-01-29T13:22:02.092Z,84
2023-01-29T13:24:32.349Z,94
2023-01-29T13:27:02.677Z,82
2023-01-29T13:29:32.650Z,91
2023-01-29T13:32:03.041Z,85
2023-01-29T13:34:33.944Z,74
2023-01-29T13:37:04.671Z,82
2023-01-29T13:39:34.890Z,88
2023-01-29T13:42:05.202Z,84
2023-01-29T13:44:35.600Z,82
2023-01-29T13:47:06.672Z,88
2023-01-29T13:49:37.434Z,100
2023-01-29T13:52:07.766Z,92
2023-01-29T13:54:38.622Z,96
2023-01-29T13:57:09.037Z,85
2023-01-29T13:59:39.408Z,82
2023-01-29T14:02:09.750Z,80
2023-01-29T14:04:39.915Z,82
2023-01-29T14:07:10.299Z,88
2023-01-29T14:09:40.172Z,76
2023-01-29T14:12:11.126Z,91
2023-01-29T14:14:41.928Z,88
2023-01-29T14:17:12.245Z,92
2023-01-29T14:19:42.572Z,94
2023-01-29T14:22:13.334Z,91
2023-01-29T14:24:43.596Z,89
2023-01-29T14:27:13.793Z,96
2023-01-29T14:29:44.134Z,91
2023-01-29T14:32:14.328Z,87
2023-01-29T14:34:44.512Z,88
2023-01-29T14:37:15.507Z,97
2023-01-29T14:39:45.787Z,105
2023-01-29T14:42:16.670Z,100
2023-01-29T14:44:46.981Z,102
2023-01-29T14:47:17.912Z,156
2023-01-29T14:49:47.912Z,107
2023-01-29T14:52:18.691Z,93
2023-01-29T14:54:48.752Z,87
2023-01-29T14:57:19.051Z,90
2023-01-29T14:59:49.434Z,84
2023-01-29T15:02:19.538Z,90
2023-01-29T15:04:50.402Z,92
2023-01-29T15:07:20.640Z,97
2023-01-29T15:09:51.749Z,99
2023-01-29T15:12:21.808Z,90
2023-01-29T15:14:51.988Z,87
2023-01-29T15:17:22.135Z,97
2023-01-29T15:19:53.102Z,89
2023-01-29T15:22:23.392Z,91
2023-01-29T15:24:54.398Z,80
2023-01-29T15:27:24.651Z,95
2023-01-29T15:29:55.142Z,82
2023-01-29T15:32:25.292Z,84
2023-01-29T15:34:56.133Z,99
2023-01-29T15:37:27.145Z,90
2023-01-29T15:39:57.551Z,84
2023-01-29T15:42:27.648Z,86
2023-01-29T15:44:58.550Z,89
2023-01-29T15:47:28.773Z,84
2023-01-29T15:49:58.952Z,91
2023-01-29T15:52:29.210Z,121
2023-01-29T15:55:00.043Z,87
2023-01-29T15:57:30.162Z,86
2023-01-29T16:00:00.924Z,77
2023-01-29T16:02:31.131Z,81
2023-01-29T16:05:01.943Z,76
2023-01-29T16:07:32.291Z,89
2023-01-29T16:10:03.267Z,82
2023-01-29T16:12:34.317Z,86
2023-01-29T16:15:04.667Z,87
2023-01-29T16:17:35.357Z,88
2023-01-29T16:20:05.676Z,92
2023-01-29T16:22:36.587Z,87
2023-01-29T16:25:06.754Z,84
2023-01-29T16:27:37.068Z,88
2023-01-29T16:30:07.464Z,89
2023-01-29T16:32:38.379Z,97
2023-01-29T16:35:08.585Z,88
2023-01-29T16:37:39.618Z,90
2023-01-29T16:40:09.919Z,88
2023-01-29T16:42:40.450Z,84
2023-01-29T16:45:10.851Z,87
2023-01-29T16:47:41.635Z,93
2023-01-29T16:50:11.791Z,93
2023-01-29T16:52:42.747Z,94
2023-01-29T16:55:12.822Z,86
2023-01-29T16:57:43.622Z,91
2023-01-29T17:00:14.106Z,96
2023-01-29T17:02:44.381Z,96
2023-01-29T17:05:14.693Z,91
2023-01-29T17:07:44.898Z,95
2023-01-29T17:10:15.285Z,103
2023-01-29T17:12:45.797Z,98
2023-01-29T17:15:16.845Z,96
2023-01-29T17:17:47.119Z,101
2023-01-29T17:20:17.160Z,112
2023-01-29T17:22:47.621Z,96
2023-01-29T17:25:18.238Z,107
2023-01-29T17:27:48.719Z,101
2023-01-29T17:30:18.942Z,98
2023-01-29T17:32:49.899Z,99
2023-01-29T17:35:20.282Z,100
2023-01-29T17:37:50.285Z,96
2023-01-29T17:40:20.539Z,114
2023-01-29T17:42:51.236Z,126
2023-01-29T17:45:22.061Z,124
2023-01-29T17:47:52.364Z,127
2023-01-29T17:50:22.563Z,102
2023-01-29T17:52:52.710Z,103
2023-01-29T17:55:23.013Z,100
2023-01-29T17:57:53.257Z,98
2023-01-29T18:00:24.055Z,97
2023-01-29T18:02:54.337Z,104
2023-01-29T18:05:25.310Z,97
2023-01-29T18:07:55.494Z,103
2023-01-29T18:10:25.625Z,98
2023-01-29T18:12:55.947Z,98
2023-01-29T18:15:26.352Z,104
2023-01-29T18:17:56.502Z,93
2023-01-29T18:20:26.855Z,103
2023-01-29T18:22:57.246Z,106
2023-01-29T18:25:28.125Z,98
2023-01-29T18:27:58.252Z,95
2023-01-29T18:30:28.629Z,103
2023-01-29T18:32:58.848Z,101
2023-01-29T18:35:29.119Z,101
2023-01-29T18:37:59.312Z,103
2023-01-29T18:40:30.350Z,98
2023-01-29T18:43:00.617Z,102
2023-01-29T18:45:31.557Z,97
2023-01-29T18:48:01.795Z,100
2023-01-29T18:50:31.857Z,99
2023-01-29T18:53:02.012Z,95
2023-01-29T18:55:33.945Z,99
2023-01-29T18:58:24.719Z,101
2023-01-29T19:00:34.065Z,100
2023-01-29T19:03:04.844Z,97
2023-01-29T19:05:35.025Z,96
2023-01-29T19:08:05.874Z,100
2023-01-29T19:10:36.232Z,105
2023-01-29T19:13:07.195Z,95
2023-01-29T19:15:37.493Z,99
2023-01-29T19:18:07.741Z,100
2023-01-29T19:20:38.102Z,93
2023-01-29T19:23:08.235Z,91
2023-01-29T19:25:38.696Z,92
2023-01-29T19:28:08.989Z,88
2023-01-29T19:30:39.914Z,87
2023-01-29T19:33:10.041Z,88
2023-01-29T19:35:40.855Z,91
2023-01-29T19:38:11.091Z,87
2023-01-29T19:40:42.069Z,86
2023-01-29T19:43:12.270Z,84
2023-01-29T19:45:49.347Z,80
2023-01-29T19:48:13.289Z,91
2023-01-29T19:50:44.115Z,83
2023-01-29T19:53:14.416Z,81
2023-01-29T19:55:45.319Z,83
2023-01-29T19:58:15.706Z,86
2023-01-29T20:00:46.625Z,82
2023-01-29T20:03:16.818Z,86
2023-01-29T20:05:47.731Z,82
2023-01-29T20:08:18.527Z,80
2023-01-29T20:10:48.539Z,76
2023-01-29T20:13:19.442Z,79
2023-01-29T20:15:49.654Z,84
2023-01-29T20:18:20.096Z,81
2023-01-29T20:20:50.173Z,84
2023-01-29T20:23:31.669Z,93
2023-01-29T20:25:50.883Z,87
2023-01-29T20:28:21.886Z,81
2023-01-29T20:30:52.245Z,80
2023-01-29T20:33:23.093Z,80
2023-01-29T20:35:53.393Z,84
2023-01-29T20:38:24.335Z,85
2023-01-29T20:40:54.694Z,76
2023-01-29T20:43:25.457Z,85
2023-01-29T20:45:55.636Z,75
2023-01-29T20:48:25.853Z,81
2023-01-29T20:50:56.254Z,87
2023-01-29T20:53:26.579Z,78
2023-01-29T20:55:56.731Z,84
2023-01-29T20:58:26.580Z,88
2023-01-29T21:00:56.837Z,75
2023-01-29T21:03:27.757Z,85
2023-01-29T21:05:57.990Z,91
2023-01-29T21:08:28.159Z,91
2023-01-29T21:10:58.491Z,86
2023-01-29T21:13:29.482Z,80
2023-01-29T21:15:59.860Z,78
2023-01-29T21:18:29.996Z,81
2023-01-29T21:21:00.232Z,87
2023-01-29T21:23:30.660Z,79
2023-01-29T21:26:01.040Z,79
2023-01-29T21:28:31.308Z,81
2023-01-29T21:31:01.501Z,72
2023-01-29T21:33:31.649Z,81
2023-01-29T21:36:02.067Z,80
2023-01-29T21:38:33.021Z,89
2023-01-29T21:41:03.174Z,77
2023-01-29T21:43:33.414Z,82
2023-01-29T21:46:03.897Z,68
2023-01-29T21:48:33.887Z,80
2023-01-29T21:51:04.006Z,80
2023-01-29T21:53:34.109Z,70
2023-01-29T21:56:04.429Z,79
2023-01-29T21:58:35.239Z,71
2023-01-29T22:01:11.598Z,69
2023-01-29T22:03:35.709Z,68
2023-01-29T22:06:05.877Z,66
2023-01-29T22:08:36.143Z,71
2023-01-29T22:11:06.967Z,67
2023-01-29T22:13:37.167Z,74
2023-01-29T22:16:08.247Z,76
2023-01-29T22:18:38.379Z,65
2023-01-29T22:21:08.704Z,74
2023-01-29T22:23:38.821Z,75
2023-01-29T22:26:09.255Z,66
2023-01-29T22:28:39.346Z,60
2023-01-29T22:31:09.501Z,68
2023-01-29T22:33:39.614Z,70
2023-01-29T22:36:10.447Z,77
2023-01-29T22:38:40.651Z,77
2023-01-29T22:41:10.925Z,148
2023-01-29T22:43:41.266Z,89
2023-01-29T22:46:11.370Z,74
2023-01-29T22:48:41.682Z,67
2023-01-29T22:51:12.644Z,82
2023-01-29T22:53:42.884Z,71
2023-01-29T22:56:13.808Z,70
2023-01-29T22:58:43.961Z,78
2023-01-29T23:01:14.042Z,71
2023-01-29T23:03:44.228Z,69
2023-01-29T23:06:14.278Z,65
2023-01-29T23:08:44.570Z,66
2023-01-29T23:11:15.727Z,68
2023-01-29T23:13:45.978Z,66
2023-01-29T23:16:16.568Z,71
2023-01-29T23:18:46.699Z,68
2023-01-29T23:21:17.637Z,72
2023-01-29T23:23:47.930Z,80
2023-01-29T23:26:17.982Z,71
2023-01-29T23:28:48.180Z,70
2023-01-29T23:31:19.217Z,71
2023-01-29T23:33:49.405Z,99
2023-01-29T23:36:19.671Z,84
2023-01-29T23:38:49.742Z,78
2023-01-29T23:41:20.221Z,64
2023-01-29T23:43:50.394Z,72
2023-01-29T23:46:20.819Z,75
2023-01-29T23:48:51.161Z,96
2023-01-29T23:51:21.366Z,82
2023-01-29T23:53:51.710Z,84
2023-01-29T23:56:21.936Z,76
2023-01-29T23:58:52.180Z,74
